createdAt,value
2023-09-23T00:01:32.234Z,100.00
2023-09-23T00:06:26.180Z,100.00
2023-09-23T00:08:53.042Z,100.00
2023-09-23T00:11:19.885Z,100.00
2023-09-23T00:13:47.129Z,100.00
2023-09-23T00:16:16.864Z,100.00
2023-09-23T00:18:45.007Z,100.00
2023-09-23T00:21:13.928Z,100.00
2023-09-23T00:23:41.260Z,100.00
2023-09-23T00:26:08.617Z,100.00
2023-09-23T00:28:35.769Z,100.00
2023-09-23T00:31:03.757Z,100.00
2023-09-23T00:33:32.033Z,100.00
2023-09-23T00:36:00.078Z,100.00
2023-09-23T00:38:28.322Z,100.00
2023-09-23T00:40:56.926Z,100.00
2023-09-23T00:43:24.657Z,100.00
2023-09-23T00:45:53.639Z,100.00
2023-09-23T00:48:22.386Z,100.00
2023-09-23T00:50:54.901Z,100.00
2023-09-23T00:53:23.915Z,100.00
2023-09-23T00:55:56.529Z,100.00
2023-09-23T00:58:27.920Z,100.00
2023-09-23T01:00:56.272Z,100.00
2023-09-23T01:03:23.823Z,100.00
2023-09-23T01:06:05.325Z,100.00
2023-09-23T01:08:32.275Z,100.00
2023-09-23T01:11:00.852Z,100.00
2023-09-23T01:13:31.137Z,100.00
2023-09-23T01:15:58.671Z,100.00
2023-09-23T01:18:25.531Z,100.00
2023-09-23T01:20:57.164Z,100.00
2023-09-23T01:23:24.801Z,100.00
2023-09-23T01:25:51.868Z,100.00
2023-09-23T01:28:19.816Z,100.00
2023-09-23T01:30:47.044Z,100.00
2023-09-23T01:33:17.425Z,100.00
2023-09-23T01:35:45.040Z,100.00
2023-09-23T01:38:12.577Z,100.00
2023-09-23T01:40:44.531Z,100.00
2023-09-23T01:43:12.019Z,100.00
2023-09-23T01:45:39.627Z,100.00
2023-09-23T01:48:08.403Z,100.00
2023-09-23T01:50:35.474Z,100.00
2023-09-23T01:53:02.397Z,100.00
2023-09-23T01:55:29.730Z,100.00
2023-09-23T02:01:31.641Z,100.00
2023-09-23T02:03:58.959Z,100.00
2023-09-23T02:06:30.144Z,100.00
2023-09-23T02:08:58.612Z,100.00
2023-09-23T02:11:25.855Z,100.00
2023-09-23T02:13:53.224Z,100.00
2023-09-23T02:16:20.134Z,100.00
2023-09-23T02:18:52.296Z,100.00
2023-09-23T02:21:21.999Z,100.00
2023-09-23T02:23:48.880Z,100.00
2023-09-23T02:26:15.740Z,100.00
2023-09-23T02:28:42.714Z,100.00
2023-09-23T02:31:09.608Z,100.00
2023-09-23T02:33:36.460Z,100.00
2023-09-23T02:36:03.431Z,100.00
2023-09-23T02:38:45.778Z,100.00
2023-09-23T02:41:12.863Z,100.00
2023-09-23T02:43:39.751Z,100.00
2023-09-23T02:46:07.976Z,100.00
2023-09-23T02:48:35.114Z,100.00
2023-09-23T02:51:04.895Z,100.00
2023-09-23T02:53:32.119Z,100.00
2023-09-23T02:56:09.284Z,100.00
2023-09-23T02:58:36.509Z,100.00
2023-09-23T03:01:06.162Z,100.00
2023-09-23T03:03:41.477Z,100.00
2023-09-23T03:06:08.643Z,100.00
2023-09-23T03:08:38.848Z,100.00
2023-09-23T03:11:11.044Z,100.00
2023-09-23T03:13:38.144Z,100.00
2023-09-23T03:16:12.438Z,100.00
2023-09-23T03:19:11.483Z,100.00
2023-09-23T03:21:46.341Z,100.00
2023-09-23T03:24:14.532Z,100.00
2023-09-23T03:26:42.020Z,100.00
2023-09-23T03:29:09.552Z,100.00
2023-09-23T03:31:36.497Z,100.00
2023-09-23T03:34:04.848Z,100.00
2023-09-23T03:36:32.890Z,100.00
2023-09-23T03:39:01.964Z,100.00
2023-09-23T03:41:29.561Z,100.00
2023-09-23T03:43:56.442Z,100.00
2023-09-23T03:46:23.306Z,100.00
2023-09-23T03:48:50.457Z,100.00
2023-09-23T03:51:17.563Z,100.00
2023-09-23T03:53:45.399Z,100.00
2023-09-23T03:56:12.528Z,100.00
2023-09-23T03:58:42.114Z,100.00
2023-09-23T04:01:14.810Z,100.00
2023-09-23T04:03:42.772Z,100.00
2023-09-23T04:06:09.769Z,100.00
2023-09-23T04:08:36.583Z,100.00
2023-09-23T04:11:08.767Z,100.00
2023-09-23T04:13:35.614Z,100.00
2023-09-23T04:16:02.609Z,100.00
2023-09-23T04:18:30.566Z,100.00
2023-09-23T04:20:57.643Z,100.00
2023-09-23T04:23:24.650Z,100.00
2023-09-23T04:25:51.782Z,100.00
2023-09-23T04:28:19.854Z,100.00
2023-09-23T04:30:46.890Z,100.00
2023-09-23T04:33:13.896Z,100.00
2023-09-23T04:35:41.433Z,100.00
2023-09-23T04:38:08.425Z,100.00
2023-09-23T04:40:35.610Z,100.00
2023-09-23T04:43:05.521Z,100.00
2023-09-23T04:45:32.450Z,100.00
2023-09-23T04:48:02.200Z,100.00
2023-09-23T04:50:29.308Z,100.00
2023-09-23T04:52:56.184Z,100.00
2023-09-23T04:55:23.452Z,100.00
2023-09-23T04:57:50.359Z,100.00
2023-09-23T05:00:20.226Z,100.00
2023-09-23T05:02:50.239Z,100.00
2023-09-23T05:05:18.978Z,100.00
2023-09-23T05:07:46.488Z,100.00
2023-09-23T05:10:14.058Z,100.00
2023-09-23T05:12:41.333Z,100.00
2023-09-23T05:15:16.962Z,100.00
2023-09-23T05:17:45.410Z,100.00
2023-09-23T05:20:26.264Z,100.00
2023-09-23T05:22:53.710Z,100.00
2023-09-23T05:25:21.321Z,100.00
2023-09-23T05:27:48.173Z,100.00
2023-09-23T05:30:15.576Z,100.00
2023-09-23T05:32:44.121Z,100.00
2023-09-23T05:35:11.112Z,100.00
2023-09-23T05:37:41.535Z,100.00
2023-09-23T05:40:25.589Z,100.00
2023-09-23T05:42:53.243Z,100.00
2023-09-23T05:45:23.960Z,100.00
2023-09-23T05:47:52.120Z,100.00
2023-09-23T05:50:21.475Z,100.00
2023-09-23T05:52:48.985Z,100.00
2023-09-23T05:55:16.399Z,100.00
2023-09-23T05:57:43.477Z,100.00
2023-09-23T06:00:12.876Z,100.00
2023-09-23T06:02:40.479Z,100.00
2023-09-23T06:05:07.880Z,100.00
2023-09-23T06:07:34.804Z,100.00
2023-09-23T06:10:01.975Z,100.00
2023-09-23T06:12:32.385Z,100.00
2023-09-23T06:15:00.303Z,100.00
2023-09-23T06:17:29.227Z,100.00
2023-09-23T06:20:00.254Z,100.00
2023-09-23T06:22:28.512Z,100.00
2023-09-23T06:24:56.094Z,100.00
2023-09-23T06:27:23.000Z,100.00
2023-09-23T06:29:49.906Z,100.00
2023-09-23T06:32:16.850Z,100.00
2023-09-23T06:34:43.932Z,100.00
2023-09-23T06:37:10.762Z,100.00
2023-09-23T06:39:37.890Z,99.30
2023-09-23T06:42:04.855Z,99.80
2023-09-23T06:44:32.213Z,98.70
2023-09-23T06:47:02.792Z,98.20
2023-09-23T06:49:30.425Z,98.30
2023-09-23T06:51:57.377Z,97.90
2023-09-23T06:54:24.238Z,97.20
2023-09-23T06:56:53.367Z,97.10
2023-09-23T06:59:20.288Z,97.40
2023-09-23T07:01:47.360Z,97.20
2023-09-23T07:04:14.366Z,96.40
2023-09-23T07:06:41.465Z,96.40
2023-09-23T07:09:08.667Z,96.10
2023-09-23T07:11:35.535Z,95.60
2023-09-23T07:14:07.236Z,96.10
2023-09-23T07:16:34.948Z,96.20
2023-09-23T07:19:02.340Z,95.50
2023-09-23T07:21:29.641Z,96.20
2023-09-23T07:23:58.238Z,95.10
2023-09-23T07:26:25.146Z,94.10
2023-09-23T07:28:52.214Z,93.60
2023-09-23T07:31:19.592Z,94.50
2023-09-23T07:33:46.843Z,93.90
2023-09-23T07:36:14.943Z,92.90
2023-09-23T07:38:41.916Z,93.50
2023-09-23T07:41:09.147Z,93.40
2023-09-23T07:43:36.437Z,92.90
2023-09-23T07:46:03.549Z,93.90
2023-09-23T07:48:30.411Z,93.10
2023-09-23T07:50:57.266Z,92.50
2023-09-23T07:53:24.181Z,93.20
2023-09-23T07:55:51.155Z,92.70
2023-09-23T07:58:18.133Z,92.10
2023-09-23T08:00:44.988Z,91.00
2023-09-23T08:03:12.005Z,91.40
2023-09-23T08:05:38.878Z,92.40
2023-09-23T08:08:07.241Z,91.60
2023-09-23T08:10:34.162Z,91.40
2023-09-23T08:13:01.105Z,90.60
2023-09-23T08:18:54.804Z,91.40
2023-09-23T08:21:26.548Z,90.70
2023-09-23T08:23:54.023Z,91.40
2023-09-23T08:26:21.081Z,90.60
2023-09-23T08:28:47.937Z,88.30
2023-09-23T08:31:18.007Z,87.70
2023-09-23T08:33:45.478Z,86.40
2023-09-23T08:36:16.660Z,86.90
2023-09-23T08:38:43.888Z,83.90
2023-09-23T08:41:20.305Z,84.70
2023-09-23T08:43:51.382Z,83.10
2023-09-23T08:46:23.521Z,82.30
2023-09-23T08:48:50.620Z,83.20
2023-09-23T08:51:20.612Z,84.10
2023-09-23T08:53:49.578Z,84.40
2023-09-23T08:56:17.078Z,84.70
2023-09-23T08:58:46.082Z,84.70
2023-09-23T09:01:13.228Z,84.50
2023-09-23T09:03:40.096Z,84.90
2023-09-23T09:06:30.669Z,84.30
2023-09-23T09:08:57.691Z,84.40
2023-09-23T09:11:25.189Z,84.10
2023-09-23T09:13:52.590Z,85.70
2023-09-23T09:16:21.919Z,85.00
2023-09-23T09:18:52.883Z,81.60
2023-09-23T09:21:20.953Z,83.30
2023-09-23T09:23:48.074Z,83.20
2023-09-23T09:26:18.002Z,83.40
2023-09-23T09:28:45.606Z,82.10
2023-09-23T09:31:14.577Z,82.60
2023-09-23T09:34:06.134Z,81.10
2023-09-23T09:36:35.459Z,84.90
2023-09-23T09:39:10.181Z,82.60
2023-09-23T09:41:54.375Z,80.80
2023-09-23T09:44:24.373Z,78.70
2023-09-23T09:46:54.616Z,77.60
2023-09-23T09:49:22.804Z,79.00
2023-09-23T09:51:50.605Z,80.50
2023-09-23T09:54:27.803Z,81.20
2023-09-23T09:56:57.301Z,79.70
2023-09-23T09:59:28.870Z,80.80
2023-09-23T10:01:59.997Z,77.00
2023-09-23T10:04:34.950Z,76.50
2023-09-23T10:07:06.247Z,76.00
2023-09-23T10:09:33.354Z,73.20
2023-09-23T10:12:02.990Z,76.90
2023-09-23T10:14:29.858Z,74.30
2023-09-23T10:17:01.183Z,74.70
2023-09-23T10:19:32.310Z,77.90
2023-09-23T10:22:18.164Z,76.50
2023-09-23T10:24:45.564Z,74.80
2023-09-23T10:27:12.527Z,72.80
2023-09-23T10:29:48.435Z,70.90
2023-09-23T10:32:17.236Z,68.80
2023-09-23T10:34:56.588Z,68.90
2023-09-23T10:37:31.169Z,68.90
2023-09-23T10:40:14.913Z,69.80
2023-09-23T10:42:42.798Z,71.20
2023-09-23T10:45:11.065Z,73.00
2023-09-23T10:47:38.705Z,74.80
2023-09-23T10:50:07.682Z,75.80
2023-09-23T10:52:35.718Z,77.10
2023-09-23T10:55:03.425Z,77.40
2023-09-23T10:57:30.564Z,76.90
2023-09-23T10:59:59.245Z,75.80
2023-09-23T11:02:26.685Z,75.30
2023-09-23T11:04:56.827Z,76.10
2023-09-23T11:07:26.033Z,74.60
2023-09-23T11:09:54.835Z,74.90
2023-09-23T11:12:21.719Z,74.40
2023-09-23T11:14:49.855Z,74.30
2023-09-23T11:17:26.978Z,72.80
2023-09-23T11:19:58.608Z,73.70
2023-09-23T11:22:30.486Z,69.00
2023-09-23T11:24:58.674Z,66.30
2023-09-23T11:27:27.597Z,65.40
2023-09-23T11:29:56.480Z,62.80
2023-09-23T11:32:27.625Z,60.00
2023-09-23T11:34:55.817Z,53.20
2023-09-23T11:37:24.158Z,57.10
2023-09-23T11:39:51.806Z,58.40
2023-09-23T11:42:18.729Z,61.20
2023-09-23T11:44:45.729Z,63.30
2023-09-23T11:47:12.779Z,64.10
2023-09-23T11:49:39.789Z,64.70
2023-09-23T11:52:13.440Z,67.50
2023-09-23T11:54:45.340Z,67.90
2023-09-23T11:57:12.395Z,70.00
2023-09-23T11:59:39.412Z,71.10
2023-09-23T12:02:06.514Z,73.10
2023-09-23T12:04:33.941Z,74.60
2023-09-23T12:07:01.348Z,73.40
2023-09-23T12:09:29.262Z,75.10
2023-09-23T12:11:56.856Z,74.10
2023-09-23T12:14:24.197Z,71.90
2023-09-23T12:16:51.424Z,72.40
2023-09-23T12:19:19.209Z,72.50
2023-09-23T12:21:46.081Z,70.90
2023-09-23T12:24:12.943Z,69.00
2023-09-23T12:26:39.892Z,69.40
2023-09-23T12:29:07.045Z,67.10
2023-09-23T12:31:33.870Z,69.40
2023-09-23T12:34:00.783Z,67.30
2023-09-23T12:36:27.671Z,68.00
2023-09-23T12:38:56.591Z,68.00
2023-09-23T12:41:23.630Z,70.10
2023-09-23T12:43:50.575Z,68.40
2023-09-23T12:46:17.471Z,62.20
2023-09-23T12:48:46.055Z,61.50
2023-09-23T12:51:13.913Z,63.60
2023-09-23T12:53:41.258Z,64.30
2023-09-23T12:56:10.443Z,63.60
2023-09-23T12:58:38.163Z,64.10
2023-09-23T13:01:08.135Z,62.80
2023-09-23T13:03:35.490Z,65.50
2023-09-23T13:06:02.550Z,66.20
2023-09-23T13:08:29.500Z,64.30
2023-09-23T13:10:56.440Z,64.80
2023-09-23T13:13:24.122Z,65.00
2023-09-23T13:15:51.508Z,65.20
2023-09-23T13:18:18.554Z,65.40
2023-09-23T13:20:46.315Z,65.10
2023-09-23T13:23:13.517Z,66.90
2023-09-23T13:25:43.026Z,66.70
2023-09-23T13:28:10.262Z,68.50
2023-09-23T13:30:37.327Z,68.20
2023-09-23T13:33:09.750Z,68.00
2023-09-23T13:35:37.767Z,60.40
2023-09-23T13:38:06.078Z,60.10
2023-09-23T13:40:34.541Z,57.70
2023-09-23T13:43:01.377Z,58.40
2023-09-23T13:45:28.358Z,56.50
2023-09-23T13:47:55.321Z,54.30
2023-09-23T13:50:22.325Z,53.10
2023-09-23T13:52:49.231Z,55.40
2023-09-23T13:55:16.076Z,57.10
2023-09-23T13:57:43.038Z,61.30
2023-09-23T14:00:10.226Z,59.20
2023-09-23T14:02:37.336Z,60.20
2023-09-23T14:05:05.747Z,60.90
2023-09-23T14:07:33.487Z,62.10
2023-09-23T14:10:10.385Z,61.90
2023-09-23T14:12:41.962Z,64.20
2023-09-23T14:15:09.748Z,63.20
2023-09-23T14:17:37.265Z,64.00
2023-09-23T14:20:06.466Z,65.10
2023-09-23T14:22:33.286Z,65.60
2023-09-23T14:25:00.181Z,65.00
2023-09-23T14:27:27.198Z,64.10
2023-09-23T14:29:54.010Z,65.40
2023-09-23T14:32:21.436Z,66.50
2023-09-23T14:34:48.358Z,64.60
2023-09-23T14:37:15.199Z,63.50
2023-09-23T14:39:42.061Z,64.90
2023-09-23T14:42:08.971Z,63.90
2023-09-23T14:44:35.795Z,63.10
2023-09-23T14:47:02.725Z,63.60
2023-09-23T14:49:29.599Z,63.90
2023-09-23T14:51:56.539Z,65.10
2023-09-23T14:54:23.394Z,65.70
2023-09-23T14:56:50.197Z,66.60
2023-09-23T14:59:17.062Z,65.30
2023-09-23T15:01:45.399Z,67.50
2023-09-23T15:04:12.484Z,65.40
2023-09-23T15:06:39.780Z,63.50
2023-09-23T15:09:06.861Z,61.20
2023-09-23T15:11:34.252Z,62.40
2023-09-23T15:16:48.757Z,63.60
2023-09-23T15:19:15.604Z,62.40
2023-09-23T15:21:42.469Z,63.60
2023-09-23T15:24:09.770Z,65.10
2023-09-23T15:26:36.747Z,64.60
2023-09-23T15:29:03.880Z,65.10
2023-09-23T15:31:30.704Z,65.80
2023-09-23T15:36:59.657Z,66.70
2023-09-23T15:39:26.511Z,67.40
2023-09-23T15:41:55.556Z,68.60
2023-09-23T15:44:22.387Z,67.10
2023-09-23T15:47:05.610Z,66.60
2023-09-23T15:49:42.989Z,67.10
2023-09-23T15:52:12.085Z,68.40
2023-09-23T15:54:39.903Z,69.30
2023-09-23T15:57:07.143Z,67.90
2023-09-23T15:59:34.013Z,67.80
2023-09-23T16:02:03.326Z,68.10
2023-09-23T16:04:30.302Z,68.20
2023-09-23T16:06:57.479Z,68.90
2023-09-23T16:10:04.889Z,68.00
2023-09-23T16:12:31.891Z,69.80
2023-09-23T16:14:58.685Z,68.50
2023-09-23T16:17:25.631Z,70.00
2023-09-23T16:19:52.814Z,70.30
2023-09-23T16:22:20.211Z,70.10
2023-09-23T16:28:18.042Z,71.10
2023-09-23T16:30:46.176Z,72.00
2023-09-23T16:33:13.681Z,71.40
2023-09-23T16:35:40.852Z,72.40
2023-09-23T16:38:07.749Z,71.20
2023-09-23T16:40:34.723Z,73.60
2023-09-23T16:43:01.569Z,73.40
2023-09-23T16:45:28.484Z,74.40
2023-09-23T16:47:55.370Z,73.90
2023-09-23T16:50:22.685Z,74.30
2023-09-23T16:52:51.516Z,73.80
2023-09-23T16:55:20.223Z,75.30
2023-09-23T16:57:47.810Z,74.50
2023-09-23T17:03:49.462Z,74.60
2023-09-23T17:06:17.005Z,76.60
2023-09-23T17:08:44.099Z,75.70
2023-09-23T17:11:11.078Z,76.30
2023-09-23T17:13:39.785Z,76.30
2023-09-23T17:16:07.115Z,77.70
2023-09-23T17:18:34.023Z,78.10
2023-09-23T17:21:00.876Z,78.60
2023-09-23T17:23:27.789Z,78.50
2023-09-23T17:25:54.941Z,79.60
2023-09-23T17:28:21.977Z,79.00
2023-09-23T17:30:48.849Z,78.60
2023-09-23T17:33:15.869Z,79.30
2023-09-23T17:35:44.662Z,79.30
2023-09-23T17:38:11.978Z,79.80
2023-09-23T17:40:38.813Z,80.10
2023-09-23T17:43:05.653Z,80.90
2023-09-23T17:45:32.551Z,81.10
2023-09-23T17:47:59.501Z,81.40
2023-09-23T17:50:26.524Z,82.00
2023-09-23T17:52:53.835Z,82.00
2023-09-23T17:55:20.784Z,82.00
2023-09-23T17:57:48.552Z,82.50
2023-09-23T18:00:15.922Z,82.60
2023-09-23T18:02:42.888Z,82.90
2023-09-23T18:05:10.557Z,83.50
2023-09-23T18:07:39.938Z,83.70
2023-09-23T18:10:07.479Z,83.80
2023-09-23T18:12:34.368Z,84.30
2023-09-23T18:15:06.304Z,84.90
2023-09-23T18:17:33.844Z,85.00
2023-09-23T18:20:00.859Z,85.20
2023-09-23T18:22:27.724Z,85.00
2023-09-23T18:24:56.907Z,85.40
2023-09-23T18:27:23.871Z,85.10
2023-09-23T18:29:51.305Z,85.00
2023-09-23T18:32:18.330Z,85.30
2023-09-23T18:34:46.122Z,84.10
2023-09-23T18:37:13.186Z,84.60
2023-09-23T18:39:40.021Z,85.10
2023-09-23T18:42:06.916Z,85.00
2023-09-23T18:44:33.787Z,85.10
2023-09-23T18:47:00.670Z,85.00
2023-09-23T18:49:27.693Z,85.10
2023-09-23T18:51:54.546Z,84.80
2023-09-23T18:54:21.467Z,85.10
2023-09-23T18:56:48.882Z,85.20
2023-09-23T18:59:16.403Z,85.20
2023-09-23T19:01:43.358Z,85.30
2023-09-23T19:04:10.221Z,84.60
2023-09-23T19:06:37.135Z,84.50
2023-09-23T19:09:04.187Z,84.70
2023-09-23T19:11:31.236Z,84.60
2023-09-23T19:13:58.373Z,84.80
2023-09-23T19:16:25.472Z,84.70
2023-09-23T19:18:53.017Z,85.10
2023-09-23T19:21:19.840Z,83.90
2023-09-23T19:23:46.916Z,84.50
2023-09-23T19:26:14.386Z,84.50
2023-09-23T19:28:42.136Z,84.70
2023-09-23T19:31:09.164Z,84.50
2023-09-23T19:33:36.258Z,83.00
2023-09-23T19:36:03.355Z,83.00
2023-09-23T19:38:30.317Z,82.90
2023-09-23T19:40:58.069Z,82.60
2023-09-23T19:43:26.103Z,82.10
2023-09-23T19:45:59.066Z,81.40
2023-09-23T19:48:26.419Z,81.20
2023-09-23T19:50:53.557Z,81.10
2023-09-23T19:53:20.557Z,80.90
2023-09-23T19:55:48.302Z,82.70
2023-09-23T19:58:19.578Z,83.40
2023-09-23T20:00:47.097Z,84.30
2023-09-23T20:03:15.144Z,83.50
2023-09-23T20:05:42.179Z,83.90
2023-09-23T20:08:09.705Z,82.40
2023-09-23T20:10:36.886Z,82.00
2023-09-23T20:13:05.705Z,83.10
2023-09-23T20:15:37.293Z,82.60
2023-09-23T20:18:05.791Z,82.60
2023-09-23T20:20:34.873Z,82.50
2023-09-23T20:23:05.251Z,82.20
2023-09-23T20:25:32.832Z,82.40
2023-09-23T20:27:59.849Z,82.20
2023-09-23T20:30:26.767Z,82.60
2023-09-23T20:32:53.823Z,82.50
2023-09-23T20:35:21.173Z,82.50
2023-09-23T20:37:48.112Z,82.40
2023-09-23T20:40:16.866Z,82.40
2023-09-23T20:42:44.857Z,82.60
2023-09-23T20:45:13.666Z,83.20
2023-09-23T20:47:41.286Z,83.30
2023-09-23T20:50:09.296Z,83.50
2023-09-23T20:52:38.433Z,83.60
2023-09-23T20:55:07.029Z,83.60
2023-09-23T20:57:34.575Z,84.00
2023-09-23T21:00:06.195Z,84.00
2023-09-23T21:02:33.469Z,84.60
2023-09-23T21:05:01.646Z,84.50
2023-09-23T21:07:28.532Z,85.20
2023-09-23T21:09:55.370Z,85.10
2023-09-23T21:12:22.236Z,85.20
2023-09-23T21:14:49.162Z,85.30
2023-09-23T21:17:16.209Z,85.80
2023-09-23T21:19:44.314Z,85.70
2023-09-23T21:22:11.213Z,86.30
2023-09-23T21:24:38.366Z,86.50
2023-09-23T21:27:05.474Z,86.60
2023-09-23T21:29:32.351Z,87.00
2023-09-23T21:31:59.428Z,86.90
2023-09-23T21:34:26.253Z,87.10
2023-09-23T21:36:53.139Z,87.10
2023-09-23T21:39:20.033Z,87.30
2023-09-23T21:41:46.908Z,87.90
2023-09-23T21:44:13.834Z,87.70
2023-09-23T21:46:40.702Z,88.20
2023-09-23T21:49:09.195Z,88.50
2023-09-23T21:51:36.831Z,88.70
2023-09-23T21:54:03.895Z,89.10
2023-09-23T21:56:41.922Z,89.30
2023-09-23T21:59:11.129Z,89.40
2023-09-23T22:01:38.207Z,89.40
2023-09-23T22:04:08.225Z,90.00
2023-09-23T22:06:37.008Z,90.30
2023-09-23T22:09:04.477Z,90.50
2023-09-23T22:11:34.382Z,90.70
2023-09-23T22:14:06.908Z,91.00
2023-09-23T22:16:39.939Z,91.40
2023-09-23T22:19:07.311Z,91.40
2023-09-23T22:21:36.706Z,91.30
2023-09-23T22:24:08.817Z,91.90
2023-09-23T22:26:38.936Z,92.40
2023-09-23T22:29:10.186Z,92.40
2023-09-23T22:31:37.738Z,92.60
2023-09-23T22:34:05.026Z,92.90
2023-09-23T22:36:33.915Z,92.90
2023-09-23T22:39:01.517Z,93.30
2023-09-23T22:41:31.687Z,93.50
2023-09-23T22:44:00.000Z,93.90
2023-09-23T22:46:27.032Z,93.90
2023-09-23T22:48:54.958Z,94.30
2023-09-23T22:51:21.968Z,94.20
2023-09-23T22:53:48.939Z,94.70
2023-09-23T22:56:16.099Z,94.70
2023-09-23T22:58:47.795Z,94.70
2023-09-23T23:01:15.499Z,94.80
2023-09-23T23:03:42.848Z,95.10
2023-09-23T23:06:09.899Z,95.20
2023-09-23T23:08:40.011Z,95.30
2023-09-23T23:11:10.682Z,95.60
2023-09-23T23:13:38.429Z,95.60
2023-09-23T23:16:14.410Z,95.70
2023-09-23T23:18:42.348Z,96.20
2023-09-23T23:21:09.278Z,96.30
2023-09-23T23:23:36.144Z,97.00
2023-09-23T23:26:09.851Z,97.80
2023-09-23T23:28:37.441Z,97.60
2023-09-23T23:31:08.363Z,98.30
2023-09-23T23:33:35.545Z,98.50
2023-09-23T23:36:03.666Z,98.40
2023-09-23T23:38:31.677Z,98.60
2023-09-23T23:41:02.678Z,98.70
2023-09-23T23:43:29.824Z,99.10
2023-09-23T23:46:04.135Z,99.10
2023-09-23T23:48:32.720Z,99.50
2023-09-23T23:51:04.763Z,99.60
2023-09-23T23:53:33.463Z,99.60
2023-09-23T23:56:07.535Z,99.50
2023-09-23T23:58:34.629Z,99.60
